Map

Track Data

SID SEASON NUMBER BASIN SUBBASIN NAME ISO_TIME NATURE LAT LON WMO_WIND WMO_PRES WMO_AGENCY TRACK_TYPE DIST2LAND LANDFALL IFLAG USA_AGENCY USA_ATCF_ID USA_LAT USA_LON USA_RECORD USA_STATUS USA_WIND USA_PRES USA_SSHS USA_R34_NE USA_R34_SE USA_R34_SW USA_R34_NW USA_R50_NE USA_R50_SE USA_R50_SW USA_R50_NW USA_R64_NE USA_R64_SE USA_R64_SW USA_R64_NW USA_POCI USA_ROCI USA_RMW USA_EYE TOKYO_LAT TOKYO_LON TOKYO_GRADE TOKYO_WIND TOKYO_PRES TOKYO_R50_DIR TOKYO_R50_LONG TOKYO_R50_SHORT TOKYO_R30_DIR TOKYO_R30_LONG TOKYO_R30_SHORT TOKYO_LAND CMA_LAT CMA_LON CMA_CAT CMA_WIND CMA_PRES HKO_LAT HKO_LON HKO_CAT HKO_WIND HKO_PRES NEWDELHI_LAT NEWDELHI_LON NEWDELHI_GRADE NEWDELHI_WIND NEWDELHI_PRES NEWDELHI_CI NEWDELHI_DP NEWDELHI_POCI REUNION_LAT REUNION_LON REUNION_TYPE REUNION_WIND REUNION_PRES REUNION_TNUM REUNION_CI REUNION_RMW REUNION_R34_NE REUNION_R34_SE REUNION_R34_SW REUNION_R34_NW REUNION_R50_NE REUNION_R50_SE REUNION_R50_SW REUNION_R50_NW REUNION_R64_NE REUNION_R64_SE REUNION_R64_SW REUNION_R64_NW BOM_LAT BOM_LON BOM_TYPE BOM_WIND BOM_PRES BOM_TNUM BOM_CI BOM_RMW BOM_R34_NE BOM_R34_SE BOM_R34_SW BOM_R34_NW BOM_R50_NE BOM_R50_SE BOM_R50_SW BOM_R50_NW BOM_R64_NE BOM_R64_SE BOM_R64_SW BOM_R64_NW BOM_ROCI BOM_POCI BOM_EYE BOM_POS_METHOD BOM_PRES_METHOD NADI_LAT NADI_LON NADI_CAT NADI_WIND NADI_PRES WELLINGTON_LAT WELLINGTON_LON WELLINGTON_WIND WELLINGTON_PRES DS824_LAT DS824_LON DS824_STAGE DS824_WIND DS824_PRES TD9636_LAT TD9636_LON TD9636_STAGE TD9636_WIND TD9636_PRES TD9635_LAT TD9635_LON TD9635_WIND TD9635_PRES TD9635_ROCI NEUMANN_LAT NEUMANN_LON NEUMANN_CLASS NEUMANN_WIND NEUMANN_PRES MLC_LAT MLC_LON MLC_CLASS MLC_WIND MLC_PRES USA_GUST BOM_GUST BOM_GUST_PER REUNION_GUST REUNION_GUST_PER USA_SEAHGT USA_SEARAD_NE USA_SEARAD_SE USA_SEARAD_SW USA_SEARAD_NW STORM_SPEED STORM_DIR
1916225N22118 1916 38 WP MM NOT_NAMED 1916-08-12 10:00:00 NR 22.1000 117.900 main 169 169 __________O___ -1 22.1000 117.900 4 2 108
1916225N22118 1916 38 WP MM NOT_NAMED 1916-08-12 12:00:00 NR 22.0792 117.973 main 178 178 __________P___ -1 22.0792 117.973 4 2 104
1916225N22118 1916 38 WP MM NOT_NAMED 1916-08-12 15:00:00 NR 22.0559 118.098 main 186 186 __________P___ -1 22.0559 118.098 4 3 96
1916225N22118 1916 38 WP MM NOT_NAMED 1916-08-12 18:00:00 NR 22.0526 118.266 main 192 190 __________P___ -1 22.0526 118.266 4 4 86
1916225N22118 1916 38 WP MM NOT_NAMED 1916-08-12 21:00:00 NR 22.0813 118.502 main 190 180 __________P___ -1 22.0813 118.502 4 5 81
1916225N22118 1916 38 WP MM NOT_NAMED 1916-08-12 22:00:00 NR 22.1000 118.600 main 180 157 __________O___ -1 22.1000 118.600 4 6 77
1916225N22118 1916 38 WP MM NOT_NAMED 1916-08-13 00:00:00 NR 22.1525 118.829 main 157 115 __________P___ -1 22.1525 118.829 4 7 75
1916225N22118 1916 38 WP MM NOT_NAMED 1916-08-13 03:00:00 NR 22.2625 119.235 main 115 62 __________P___ -1 22.2625 119.235 4 8 73
1916225N22118 1916 38 WP MM NOT_NAMED 1916-08-13 06:00:00 NR 22.3988 119.687 main 62 20 __________P___ -1 22.3988 119.687 4 9 71
1916225N22118 1916 38 WP MM NOT_NAMED 1916-08-13 09:00:00 NR 22.5489 120.149 main 20 0 __________P___ -1 22.5489 120.149 4 9 70
1916225N22118 1916 38 WP MM NOT_NAMED 1916-08-13 10:00:00 NR 22.6000 120.300 main 0 0 __________O___ -1 22.6000 120.300 4 8 72
1916225N22118 1916 38 WP MM NOT_NAMED 1916-08-13 12:00:00 NR 22.6783 120.575 main 0 0 __________P___ -1 22.6783 120.575 4 8 72
1916225N22118 1916 38 WP MM NOT_NAMED 1916-08-13 15:00:00 NR 22.8019 120.982 main 0 0 __________P___ -1 22.8019 120.982 4 8 70
1916225N22118 1916 38 WP MM NOT_NAMED 1916-08-13 18:00:00 NR 22.9468 121.381 main 15 10 __________P___ -1 22.9468 121.381 4 8 66
1916225N22118 1916 38 WP MM NOT_NAMED 1916-08-13 21:00:00 NR 23.1285 121.772 main 40 40 __________P___ -1 23.1285 121.772 4 8 62
1916225N22118 1916 38 WP MM NOT_NAMED 1916-08-13 22:00:00 NR 23.2000 121.900 main 51 51 __________O___ -1 23.2000 121.900 4 8 58
1916225N22118 1916 38 WP MM NOT_NAMED 1916-08-14 00:00:00 NR 23.3499 122.164 main 81 78 __________P___ -1 23.3499 122.164 4 9 56
1916225N22118 1916 38 WP MM NOT_NAMED 1916-08-14 03:00:00 NR 23.6124 122.553 main 112 111 __________P___ -1 23.6124 122.553 4 9 51
1916225N22118 1916 38 WP MM NOT_NAMED 1916-08-14 06:00:00 NR 23.9199 122.930 main 121 124 __________P___ -1 23.9199 122.930 4 9 45
1916225N22118 1916 38 WP MM NOT_NAMED 1916-08-14 09:00:00 NR 24.2725 123.286 main 143 143 __________P___ -1 24.2725 123.286 4 10 42
1916225N22118 1916 38 WP MM NOT_NAMED 1916-08-14 10:00:00 NR 24.4000 123.400 main 152 152 __________O___ -1 24.4000 123.400 4 10 37
1916225N22118 1916 38 WP MM NOT_NAMED 1916-08-14 12:00:00 NR 24.6695 123.618 main 164 164 __________P___ -1 24.6695 123.618 4 10 34
1916225N22118 1916 38 WP MM NOT_NAMED 1916-08-14 15:00:00 NR 25.1040 123.927 main 191 191 __________P___ -1 25.1040 123.927 4 11 31
1916225N22118 1916 38 WP MM NOT_NAMED 1916-08-14 18:00:00 NR 25.5648 124.220 main 230 230 __________P___ -1 25.5648 124.220 4 11 29
1916225N22118 1916 38 WP MM NOT_NAMED 1916-08-14 21:00:00 NR 26.0402 124.505 main 274 279 __________P___ -1 26.0402 124.505 4 11 28
1916225N22118 1916 38 WP MM NOT_NAMED 1916-08-14 22:00:00 NR 26.2000 124.600 main 292 __________O___ -1 26.2000 124.600 7 11 28

Digital Typhoon Data and Search

About IBTrACS Database

This database is a web-friendly format of International Best Track Archive for Climate Stewardship (IBTrACS), a global best track data archive curated by NOAA dating back to 1842.

Updated: 2021-12-08